createdAt,value
2023-03-15T00:01:19.838Z,1.00
2023-03-15T00:03:47.876Z,1.08
2023-03-15T00:06:15.805Z,0.80
2023-03-15T00:08:47.391Z,0.85
2023-03-15T00:11:18.837Z,0.80
2023-03-15T00:13:47.359Z,0.62
2023-03-15T00:16:18.659Z,0.82
2023-03-15T00:18:47.202Z,0.70
2023-03-15T00:21:15.416Z,0.85
2023-03-15T00:23:42.822Z,1.02
2023-03-15T00:26:10.461Z,0.73
2023-03-15T00:28:38.251Z,0.55
2023-03-15T00:31:14.788Z,0.68
2023-03-15T00:33:42.710Z,0.50
2023-03-15T00:36:10.806Z,0.80
2023-03-15T00:38:39.520Z,0.75
2023-03-15T00:41:08.801Z,0.70
2023-03-15T00:43:36.375Z,0.70
2023-03-15T00:46:04.637Z,0.60
2023-03-15T00:48:32.897Z,0.70
2023-03-15T00:51:04.337Z,0.90
2023-03-15T00:53:32.482Z,0.80
2023-03-15T00:56:04.621Z,0.80
2023-03-15T00:58:32.317Z,0.73
2023-03-15T01:01:00.757Z,0.70
2023-03-15T01:03:28.693Z,0.77
2023-03-15T01:05:56.506Z,0.80
2023-03-15T01:08:24.160Z,1.00
2023-03-15T01:10:51.528Z,0.82
2023-03-15T01:13:19.192Z,0.80
2023-03-15T01:15:47.829Z,0.70
2023-03-15T01:18:15.311Z,0.90
2023-03-15T01:20:44.856Z,0.82
2023-03-15T01:23:12.521Z,0.85
2023-03-15T01:25:40.565Z,0.90
2023-03-15T01:28:08.255Z,1.15
2023-03-15T01:30:35.951Z,0.90
2023-03-15T01:33:03.875Z,0.70
2023-03-15T01:35:31.583Z,0.70
2023-03-15T01:37:59.223Z,0.70
2023-03-15T01:40:27.229Z,0.80
2023-03-15T01:43:04.265Z,0.73
2023-03-15T01:45:59.688Z,1.00
2023-03-15T01:48:33.884Z,0.85
2023-03-15T01:51:04.895Z,0.77
2023-03-15T01:53:33.069Z,0.80
2023-03-15T01:56:01.260Z,0.98
2023-03-15T01:58:29.712Z,0.90
2023-03-15T02:00:57.670Z,0.90
2023-03-15T02:03:36.753Z,0.80
2023-03-15T02:06:07.514Z,0.70
2023-03-15T02:08:41.344Z,0.80
2023-03-15T02:11:08.877Z,0.68
2023-03-15T02:13:36.640Z,0.80
2023-03-15T02:16:06.984Z,0.70
2023-03-15T02:18:37.616Z,0.70
2023-03-15T02:21:15.745Z,0.70
2023-03-15T02:23:44.338Z,0.80
2023-03-15T02:26:26.178Z,0.85
2023-03-15T02:28:54.400Z,0.80
2023-03-15T02:31:22.039Z,0.90
2023-03-15T02:33:51.608Z,0.80
2023-03-15T02:36:24.488Z,0.90
2023-03-15T02:38:52.514Z,0.82
2023-03-15T02:41:28.589Z,0.80
2023-03-15T02:44:00.332Z,0.90
2023-03-15T02:46:28.457Z,0.80
2023-03-15T02:48:55.962Z,0.80
2023-03-15T02:51:24.726Z,1.10
2023-03-15T02:53:52.354Z,1.00
2023-03-15T02:56:20.121Z,0.98
2023-03-15T02:58:47.801Z,0.90
2023-03-15T03:01:16.926Z,0.82
2023-03-15T03:03:46.539Z,1.20
2023-03-15T03:06:15.923Z,1.02
2023-03-15T03:08:47.191Z,1.00
2023-03-15T03:11:15.784Z,1.08
2023-03-15T03:13:43.758Z,1.30
2023-03-15T03:16:11.948Z,1.00
2023-03-15T03:18:42.165Z,0.90
2023-03-15T03:21:09.647Z,1.20
2023-03-15T03:23:37.358Z,1.02
2023-03-15T03:26:16.567Z,1.20
2023-03-15T03:28:46.364Z,1.60
2023-03-15T03:31:25.994Z,1.17
2023-03-15T03:33:55.854Z,1.10
2023-03-15T03:36:25.604Z,0.88
2023-03-15T03:38:53.738Z,1.10
2023-03-15T03:41:21.538Z,1.05
2023-03-15T03:43:49.120Z,1.00
2023-03-15T03:46:16.856Z,0.90
2023-03-15T03:48:45.884Z,1.00
2023-03-15T03:51:13.324Z,0.90
2023-03-15T03:53:40.785Z,0.80
2023-03-15T03:56:08.737Z,1.10
2023-03-15T03:58:36.351Z,0.80
2023-03-15T04:01:05.168Z,0.90
2023-03-15T04:03:33.241Z,0.90
2023-03-15T04:06:02.313Z,0.80
2023-03-15T04:08:29.771Z,0.65
2023-03-15T04:10:57.892Z,0.90
2023-03-15T04:13:25.899Z,0.80
2023-03-15T04:15:57.762Z,1.00
2023-03-15T04:18:27.773Z,0.82
2023-03-15T04:20:56.066Z,0.88
2023-03-15T04:23:23.909Z,1.00
2023-03-15T04:25:52.726Z,0.82
2023-03-15T04:28:22.730Z,0.60
2023-03-15T04:30:50.580Z,0.70
2023-03-15T04:33:19.300Z,0.80
2023-03-15T04:35:47.148Z,0.93
2023-03-15T04:38:15.926Z,0.57
2023-03-15T04:40:43.833Z,0.52
2023-03-15T04:43:11.501Z,0.50
2023-03-15T04:45:39.258Z,0.40
2023-03-15T04:48:07.336Z,0.70
2023-03-15T04:50:35.378Z,0.65
2023-03-15T04:53:03.954Z,0.75
2023-03-15T04:55:34.156Z,0.60
2023-03-15T04:58:04.465Z,0.60
2023-03-15T05:00:32.176Z,0.70
2023-03-15T05:03:00.183Z,0.70
2023-03-15T05:05:29.355Z,0.62
2023-03-15T05:07:56.910Z,0.82
2023-03-15T05:10:25.403Z,0.70
2023-03-15T05:12:53.080Z,0.90
2023-03-15T05:15:20.831Z,0.80
2023-03-15T05:17:49.293Z,1.05
2023-03-15T05:20:17.012Z,1.35
2023-03-15T05:22:45.928Z,1.00
2023-03-15T05:25:15.348Z,1.30
2023-03-15T05:27:46.364Z,1.02
2023-03-15T05:30:16.162Z,1.50
2023-03-15T05:32:44.649Z,1.30
2023-03-15T05:35:13.303Z,1.85
2023-03-15T05:37:42.322Z,1.80
2023-03-15T05:40:11.440Z,1.65
2023-03-15T05:42:40.003Z,1.55
2023-03-15T05:45:08.617Z,1.75
2023-03-15T05:47:36.565Z,1.90
2023-03-15T05:50:05.054Z,2.15
2023-03-15T05:52:33.142Z,1.90
2023-03-15T05:55:02.422Z,2.00
2023-03-15T05:57:30.854Z,2.10
2023-03-15T05:59:59.108Z,2.30
2023-03-15T06:02:26.608Z,2.40
2023-03-15T06:04:55.216Z,2.30
2023-03-15T06:07:22.857Z,2.25
2023-03-15T06:09:52.055Z,2.12
2023-03-15T06:12:20.119Z,2.67
2023-03-15T06:14:47.954Z,2.67
2023-03-15T06:17:15.416Z,2.15
2023-03-15T06:19:43.549Z,2.40
2023-03-15T06:22:10.996Z,2.70
2023-03-15T06:24:38.518Z,2.95
2023-03-15T06:27:06.289Z,5.65
2023-03-15T06:29:35.483Z,10.43
2023-03-15T06:32:03.705Z,6.25
2023-03-15T06:34:31.620Z,7.20
2023-03-15T06:36:59.232Z,9.75
2023-03-15T06:39:26.628Z,4.28
2023-03-15T06:41:57.357Z,3.42
2023-03-15T06:44:25.802Z,3.15
2023-03-15T06:46:53.542Z,3.15
2023-03-15T06:49:21.280Z,3.33
2023-03-15T06:51:49.690Z,3.03
2023-03-15T06:54:17.169Z,2.92
2023-03-15T06:56:44.851Z,3.33
2023-03-15T06:59:12.237Z,2.90
2023-03-15T07:01:39.734Z,3.28
2023-03-15T07:04:08.456Z,2.80
2023-03-15T07:06:36.177Z,3.28
2023-03-15T07:09:05.288Z,3.05
2023-03-15T07:11:33.403Z,2.60
2023-03-15T07:14:01.022Z,3.42
2023-03-15T07:16:28.350Z,3.17
2023-03-15T07:18:56.580Z,3.22
2023-03-15T07:21:24.058Z,3.50
2023-03-15T07:23:51.862Z,3.83
2023-03-15T07:26:19.483Z,3.33
2023-03-15T07:28:46.985Z,3.50
2023-03-15T07:31:14.497Z,3.67
2023-03-15T07:33:42.277Z,3.22
2023-03-15T07:36:09.952Z,3.22
2023-03-15T07:38:37.404Z,3.45
2023-03-15T07:41:06.429Z,3.90
2023-03-15T07:43:34.470Z,3.78
2023-03-15T07:46:06.873Z,4.28
2023-03-15T07:48:34.569Z,3.60
2023-03-15T07:51:02.074Z,3.92
2023-03-15T07:53:29.958Z,3.50
2023-03-15T07:55:57.643Z,4.22
2023-03-15T07:58:25.049Z,3.85
2023-03-15T08:00:55.368Z,4.40
2023-03-15T08:03:24.609Z,4.65
2023-03-15T08:05:52.084Z,4.10
2023-03-15T08:08:19.847Z,4.50
2023-03-15T08:10:47.536Z,4.40
2023-03-15T08:13:14.966Z,3.83
2023-03-15T08:15:45.739Z,3.50
2023-03-15T08:18:14.130Z,3.25
2023-03-15T08:20:41.604Z,3.47
2023-03-15T08:23:09.265Z,3.70
2023-03-15T08:25:40.708Z,3.90
2023-03-15T08:28:08.518Z,3.67
2023-03-15T08:30:36.080Z,3.28
2023-03-15T08:33:03.975Z,3.17
2023-03-15T08:35:33.091Z,2.78
2023-03-15T08:38:02.750Z,2.62
2023-03-15T08:40:31.237Z,2.75
2023-03-15T08:42:59.638Z,2.90
2023-03-15T08:45:27.229Z,2.42
2023-03-15T08:47:59.096Z,3.33
2023-03-15T08:50:27.566Z,3.15
2023-03-15T08:52:55.653Z,3.08
2023-03-15T08:55:23.314Z,3.12
2023-03-15T08:57:50.740Z,2.10
2023-03-15T09:00:22.897Z,2.47
2023-03-15T09:02:55.099Z,2.47
2023-03-15T09:05:24.121Z,2.28
2023-03-15T09:07:53.168Z,2.20
2023-03-15T09:10:22.096Z,2.53
2023-03-15T09:12:52.202Z,2.83
2023-03-15T09:15:19.738Z,2.58
2023-03-15T09:17:49.557Z,2.53
2023-03-15T09:20:19.218Z,2.42
2023-03-15T09:22:57.146Z,2.85
2023-03-15T09:25:25.600Z,2.83
2023-03-15T09:27:53.430Z,2.50
2023-03-15T09:30:21.153Z,2.53
2023-03-15T09:32:49.177Z,2.50
2023-03-15T09:35:19.002Z,2.35
2023-03-15T09:37:47.555Z,2.33
2023-03-15T09:40:17.885Z,3.10
2023-03-15T09:42:57.047Z,2.20
2023-03-15T09:45:28.402Z,2.87
2023-03-15T09:48:33.608Z,3.25
2023-03-15T09:51:40.098Z,2.00
2023-03-15T09:54:13.508Z,1.98
2023-03-15T09:56:58.716Z,2.08
2023-03-15T09:59:30.718Z,2.30
2023-03-15T10:01:59.431Z,2.25
2023-03-15T10:04:34.872Z,2.33
2023-03-15T10:07:03.530Z,1.83
2023-03-15T10:09:35.494Z,2.85
2023-03-15T10:12:10.906Z,2.43
2023-03-15T10:14:59.521Z,2.35
2023-03-15T10:17:40.520Z,2.40
2023-03-15T10:20:14.040Z,2.30
2023-03-15T10:22:51.231Z,6.30
2023-03-15T10:25:26.271Z,4.07
2023-03-15T10:27:59.726Z,4.40
2023-03-15T10:30:30.105Z,7.95
2023-03-15T10:33:03.259Z,4.00
2023-03-15T10:35:32.151Z,4.82
2023-03-15T10:37:59.839Z,3.85
2023-03-15T10:40:51.755Z,3.47
2023-03-15T10:43:32.011Z,3.17
2023-03-15T10:46:01.225Z,2.60
2023-03-15T10:48:31.559Z,2.75
2023-03-15T10:51:19.589Z,2.62
2023-03-15T10:54:06.818Z,3.00
2023-03-15T10:57:02.096Z,2.75
2023-03-15T10:59:32.454Z,3.08
2023-03-15T11:02:12.077Z,3.47
2023-03-15T11:05:10.087Z,3.15
2023-03-15T11:07:37.466Z,2.80
2023-03-15T11:10:06.830Z,2.72
2023-03-15T11:12:35.091Z,2.58
2023-03-15T11:15:15.375Z,2.35
2023-03-15T11:17:45.929Z,2.78
2023-03-15T11:20:30.400Z,2.72
2023-03-15T11:23:00.052Z,2.20
2023-03-15T11:25:31.393Z,2.95
2023-03-15T11:28:00.096Z,2.78
2023-03-15T11:30:31.276Z,2.37
2023-03-15T11:33:05.293Z,2.78
2023-03-15T11:35:36.378Z,2.90
2023-03-15T11:38:15.583Z,3.17
2023-03-15T11:40:45.478Z,2.92
2023-03-15T11:43:22.214Z,2.80
2023-03-15T11:45:59.149Z,2.53
2023-03-15T11:48:42.609Z,2.92
2023-03-15T11:51:11.808Z,2.55
2023-03-15T11:53:50.166Z,3.58
2023-03-15T11:56:29.994Z,2.70
2023-03-15T11:59:12.896Z,2.83
2023-03-15T12:04:32.173Z,2.78
2023-03-15T12:07:03.379Z,2.70
2023-03-15T12:09:36.218Z,2.62
2023-03-15T12:12:23.854Z,2.67
2023-03-15T12:15:36.022Z,2.40
2023-03-15T12:18:07.487Z,2.50
2023-03-15T12:20:42.904Z,2.83
2023-03-15T12:23:18.580Z,3.12
2023-03-15T12:25:55.283Z,2.72
2023-03-15T12:28:45.340Z,2.40
2023-03-15T12:31:14.150Z,2.47
2023-03-15T12:33:57.729Z,2.95
2023-03-15T12:36:37.246Z,3.15
2023-03-15T12:39:13.966Z,3.05
2023-03-15T12:41:44.259Z,3.20
2023-03-15T12:44:25.387Z,2.55
2023-03-15T12:46:54.932Z,2.60
2023-03-15T12:49:25.243Z,2.25
2023-03-15T12:51:59.477Z,2.90
2023-03-15T12:54:33.096Z,1.80
2023-03-15T12:57:03.254Z,2.55
2023-03-15T12:59:36.103Z,1.73
2023-03-15T13:02:43.274Z,2.10
2023-03-15T13:05:17.339Z,1.45
2023-03-15T13:07:52.143Z,1.75
2023-03-15T13:10:40.643Z,1.55
2023-03-15T13:13:17.368Z,2.00
2023-03-15T13:15:59.028Z,1.30
2023-03-15T13:18:27.276Z,1.70
2023-03-15T13:21:10.113Z,1.70
2023-03-15T13:23:37.895Z,2.33
2023-03-15T13:26:43.210Z,2.87
2023-03-15T13:29:15.075Z,1.50
2023-03-15T13:31:43.788Z,1.83
2023-03-15T13:34:16.849Z,1.33
2023-03-15T13:36:49.441Z,1.77
2023-03-15T13:39:23.400Z,1.55
2023-03-15T13:42:00.180Z,1.62
2023-03-15T13:44:29.150Z,2.40
2023-03-15T13:46:57.488Z,2.00
2023-03-15T13:49:25.854Z,1.98
2023-03-15T13:51:54.105Z,2.17
2023-03-15T13:54:26.967Z,2.30
2023-03-15T13:57:07.348Z,2.60
2023-03-15T13:59:52.701Z,2.62
2023-03-15T14:02:38.496Z,2.00
2023-03-15T14:05:13.357Z,1.80
2023-03-15T14:07:46.938Z,1.92
2023-03-15T14:10:32.196Z,1.55
2023-03-15T14:13:15.625Z,1.50
2023-03-15T14:15:44.364Z,1.75
2023-03-15T14:18:11.620Z,2.00
2023-03-15T14:20:48.067Z,2.65
2023-03-15T14:23:18.120Z,1.83
2023-03-15T14:25:53.017Z,1.83
2023-03-15T14:28:21.277Z,2.30
2023-03-15T14:30:57.311Z,1.85
2023-03-15T14:33:41.914Z,1.67
2023-03-15T14:36:25.972Z,1.75
2023-03-15T14:38:55.232Z,2.00
2023-03-15T14:41:31.289Z,2.30
2023-03-15T14:44:01.037Z,3.85
2023-03-15T14:46:29.984Z,3.80
2023-03-15T14:48:57.704Z,2.40
2023-03-15T14:51:26.909Z,1.75
2023-03-15T14:53:56.236Z,1.65
2023-03-15T14:56:24.870Z,2.40
2023-03-15T14:58:55.441Z,1.80
2023-03-15T15:01:25.126Z,1.92
2023-03-15T15:03:55.293Z,1.98
2023-03-15T15:06:22.719Z,2.45
2023-03-15T15:08:52.905Z,1.95
2023-03-15T15:11:20.603Z,1.85
2023-03-15T15:13:47.979Z,2.00
2023-03-15T15:16:15.446Z,2.50
2023-03-15T15:18:43.145Z,2.00
2023-03-15T15:21:21.937Z,3.65
2023-03-15T15:23:59.172Z,2.70
2023-03-15T15:26:28.801Z,2.20
2023-03-15T15:28:56.881Z,2.45
2023-03-15T15:31:25.969Z,1.67
2023-03-15T15:33:54.518Z,2.70
2023-03-15T15:36:36.649Z,1.90
2023-03-15T15:39:07.476Z,2.22
2023-03-15T15:41:35.324Z,1.50
2023-03-15T15:44:03.048Z,1.80
2023-03-15T15:46:30.617Z,1.85
2023-03-15T15:48:58.785Z,2.50
2023-03-15T15:51:28.903Z,2.65
2023-03-15T15:54:00.784Z,2.42
2023-03-15T15:56:44.159Z,2.30
2023-03-15T15:59:14.873Z,4.70
2023-03-15T16:01:58.859Z,3.87
2023-03-15T16:04:27.409Z,3.10
2023-03-15T16:06:58.573Z,2.45
2023-03-15T16:09:28.237Z,2.33
2023-03-15T16:11:55.918Z,2.03
2023-03-15T16:14:23.332Z,1.90
2023-03-15T16:16:50.771Z,2.20
2023-03-15T16:19:18.446Z,4.80
2023-03-15T16:21:47.914Z,3.78
2023-03-15T16:24:25.333Z,1.75
2023-03-15T16:26:58.996Z,2.00
2023-03-15T16:29:38.699Z,1.73
2023-03-15T16:32:16.893Z,1.67
2023-03-15T16:34:47.727Z,6.47
2023-03-15T16:37:22.684Z,2.40
2023-03-15T16:39:51.007Z,2.78
2023-03-15T16:42:19.176Z,3.35
2023-03-15T16:44:46.809Z,3.20
2023-03-15T16:47:14.177Z,2.45
2023-03-15T16:49:41.894Z,2.53
2023-03-15T16:52:11.749Z,3.83
2023-03-15T16:54:41.577Z,3.33
2023-03-15T16:57:21.885Z,2.92
2023-03-15T16:59:49.936Z,2.20
2023-03-15T17:02:20.271Z,2.40
2023-03-15T17:04:47.790Z,3.92
2023-03-15T17:07:15.796Z,3.80
2023-03-15T17:09:45.774Z,2.80
2023-03-15T17:12:33.376Z,2.22
2023-03-15T17:15:01.145Z,2.30
2023-03-15T17:17:31.398Z,2.80
2023-03-15T17:19:59.794Z,2.30
2023-03-15T17:22:27.552Z,2.10
2023-03-15T17:24:54.993Z,2.78
2023-03-15T17:27:27.514Z,2.95
2023-03-15T17:29:55.101Z,2.03
2023-03-15T17:32:22.665Z,2.15
2023-03-15T17:34:50.145Z,2.37
2023-03-15T17:37:18.652Z,1.75
2023-03-15T17:39:47.643Z,1.70
2023-03-15T17:42:15.389Z,2.20
2023-03-15T17:44:43.072Z,2.03
2023-03-15T17:47:13.727Z,3.20
2023-03-15T17:49:41.171Z,1.83
2023-03-15T17:52:13.058Z,1.75
2023-03-15T17:54:40.954Z,1.83
2023-03-15T17:57:11.788Z,1.80
2023-03-15T17:59:39.458Z,1.85
2023-03-15T18:02:13.754Z,1.67
2023-03-15T18:04:41.694Z,1.58
2023-03-15T18:07:09.090Z,1.80
2023-03-15T18:09:36.440Z,1.80
2023-03-15T18:12:04.206Z,1.90
2023-03-15T18:14:36.974Z,1.40
2023-03-15T18:17:05.339Z,1.52
2023-03-15T18:19:32.796Z,1.55
2023-03-15T18:22:00.216Z,1.65
2023-03-15T18:24:27.878Z,1.92
2023-03-15T18:26:55.256Z,1.73
2023-03-15T18:29:23.097Z,2.10
2023-03-15T18:31:50.868Z,1.77
2023-03-15T18:34:21.815Z,1.58
2023-03-15T18:36:49.442Z,1.80
2023-03-15T18:39:17.725Z,1.75
2023-03-15T18:41:45.122Z,1.50
2023-03-15T18:44:12.466Z,1.70
2023-03-15T18:46:43.744Z,1.45
2023-03-15T18:49:11.096Z,1.80
2023-03-15T18:51:38.480Z,1.62
2023-03-15T18:54:06.169Z,2.00
2023-03-15T18:56:35.769Z,1.77
2023-03-15T18:59:03.511Z,1.40
2023-03-15T19:01:32.339Z,2.30
2023-03-15T19:03:59.751Z,1.77
2023-03-15T19:06:27.478Z,6.07
2023-03-15T19:08:55.223Z,4.47
2023-03-15T19:11:24.399Z,4.20
2023-03-15T19:13:51.829Z,2.22
2023-03-15T19:16:23.278Z,4.10
2023-03-15T19:18:51.918Z,5.22
2023-03-15T19:21:20.121Z,1.83
2023-03-15T19:23:47.636Z,1.70
2023-03-15T19:26:15.073Z,2.15
2023-03-15T19:28:42.892Z,1.67
2023-03-15T19:31:11.281Z,1.58
2023-03-15T19:33:38.725Z,1.58
2023-03-15T19:36:06.800Z,1.50
2023-03-15T19:38:34.630Z,1.60
2023-03-15T19:41:06.234Z,1.52
2023-03-15T19:43:34.157Z,1.30
2023-03-15T19:46:01.667Z,1.40
2023-03-15T19:48:29.318Z,1.45
2023-03-15T19:50:57.048Z,1.55
2023-03-15T19:53:25.523Z,1.60
2023-03-15T19:55:53.014Z,1.98
2023-03-15T19:58:20.990Z,2.45
2023-03-15T20:00:54.155Z,2.30
2023-03-15T20:03:21.785Z,2.67
2023-03-15T20:05:49.204Z,2.97
2023-03-15T20:08:16.646Z,3.33
2023-03-15T20:10:44.314Z,2.42
2023-03-15T20:13:11.758Z,2.70
2023-03-15T20:15:39.314Z,2.58
2023-03-15T20:18:08.174Z,2.45
2023-03-15T20:20:35.807Z,2.65
2023-03-15T20:23:03.656Z,2.65
2023-03-15T20:25:31.627Z,2.78
2023-03-15T20:27:59.024Z,2.78
2023-03-15T20:30:26.739Z,2.72
2023-03-15T20:32:54.711Z,2.62
2023-03-15T20:35:22.229Z,2.35
2023-03-15T20:37:49.657Z,2.20
2023-03-15T20:40:17.437Z,1.80
2023-03-15T20:42:45.021Z,2.15
2023-03-15T20:45:13.686Z,2.10
2023-03-15T20:47:41.624Z,2.40
2023-03-15T20:50:10.543Z,2.05
2023-03-15T20:52:38.030Z,1.75
2023-03-15T20:55:07.849Z,1.90
2023-03-15T20:57:36.434Z,1.95
2023-03-15T21:00:12.324Z,2.25
2023-03-15T21:02:40.294Z,2.40
2023-03-15T21:05:09.517Z,2.53
2023-03-15T21:07:37.495Z,2.15
2023-03-15T21:10:05.788Z,2.08
2023-03-15T21:12:33.185Z,2.35
2023-03-15T21:15:01.759Z,1.60
2023-03-15T21:17:29.566Z,1.87
2023-03-15T21:19:57.055Z,2.03
2023-03-15T21:22:24.777Z,2.20
2023-03-15T21:24:55.863Z,1.58
2023-03-15T21:27:26.190Z,2.03
2023-03-15T21:29:54.612Z,1.65
2023-03-15T21:32:22.043Z,1.73
2023-03-15T21:34:49.426Z,1.80
2023-03-15T21:37:17.405Z,1.58
2023-03-15T21:39:45.056Z,1.95
2023-03-15T21:42:12.390Z,2.22
2023-03-15T21:44:40.438Z,2.65
2023-03-15T21:47:08.090Z,2.95
2023-03-15T21:49:35.424Z,2.47
2023-03-15T21:52:03.106Z,2.95
2023-03-15T21:54:30.517Z,2.83
2023-03-15T21:56:58.191Z,3.12
2023-03-15T21:59:29.270Z,3.30
2023-03-15T22:01:57.284Z,3.50
2023-03-15T22:04:25.068Z,3.08
2023-03-15T22:06:52.969Z,3.17
2023-03-15T22:09:21.033Z,3.35
2023-03-15T22:11:49.125Z,2.75
2023-03-15T22:14:16.631Z,3.08
2023-03-15T22:16:44.351Z,2.72
2023-03-15T22:19:12.079Z,2.72
2023-03-15T22:21:39.461Z,3.08
2023-03-15T22:24:08.381Z,3.00
2023-03-15T22:26:36.147Z,3.08
2023-03-15T22:29:03.790Z,3.37
2023-03-15T22:31:31.809Z,3.33
2023-03-15T22:33:59.486Z,4.07
2023-03-15T22:36:26.798Z,3.17
2023-03-15T22:38:54.144Z,3.60
2023-03-15T22:41:22.047Z,3.28
2023-03-15T22:43:49.485Z,3.20
2023-03-15T22:46:17.347Z,3.22
2023-03-15T22:48:45.218Z,3.30
2023-03-15T22:51:15.380Z,3.72
2023-03-15T22:53:43.001Z,3.10
2023-03-15T22:56:10.747Z,3.80
2023-03-15T22:58:38.209Z,3.55
2023-03-15T23:01:05.661Z,2.95
2023-03-15T23:03:33.421Z,3.08
2023-03-15T23:06:00.740Z,3.17
2023-03-15T23:08:28.146Z,3.70
2023-03-15T23:10:58.812Z,2.90
2023-03-15T23:13:26.169Z,3.10
2023-03-15T23:15:54.237Z,2.83
2023-03-15T23:18:22.094Z,2.85
2023-03-15T23:20:49.543Z,3.03
2023-03-15T23:23:17.148Z,3.25
2023-03-15T23:25:45.966Z,2.90
2023-03-15T23:28:17.056Z,3.50
2023-03-15T23:30:45.578Z,3.55
2023-03-15T23:33:13.423Z,3.12
2023-03-15T23:35:41.952Z,2.92
2023-03-15T23:38:09.712Z,2.80
2023-03-15T23:40:37.388Z,2.95
2023-03-15T23:43:06.042Z,2.72
2023-03-15T23:45:34.088Z,3.17
2023-03-15T23:48:02.639Z,2.78
2023-03-15T23:50:30.309Z,2.95
2023-03-15T23:52:58.172Z,3.10
2023-03-15T23:55:25.565Z,3.10
2023-03-15T23:57:52.960Z,2.90
